Time;durP1;ratioP1;P1;durP2;ratioP2;P2;SDS_P1;SDS_P2;PMS_P1;PMS_P2;Temp;Humidity;BMP_temperature;BMP_pressure;BME280_temperature;BME280_humidity;BME280_pressure;Samples;Min_cycle;Max_cycle;Signal;HPM_P1;HPM_P2
2022/11/03 00:01:52;;;;;;;33.60;13.85;;;4.50;99.90;;;;;;6276231;22;20019;-83
2022/11/03 00:04:40;;;;;;;30.38;12.48;;;4.50;99.90;;;;;;6277641;22;20034;-84
2022/11/03 00:07:27;;;;;;;28.17;12.82;;;4.50;99.90;;;;;;6257299;22;20020;-83
2022/11/03 00:10:14;;;;;;;29.75;11.35;;;4.60;99.90;;;;;;6280352;22;20023;-84
2022/11/03 00:13:01;;;;;;;27.20;12.43;;;4.70;99.90;;;;;;6256072;22;20108;-83
2022/11/03 00:15:49;;;;;;;31.00;16.35;;;4.80;99.90;;;;;;6277150;22;20111;-85
2022/11/03 00:23:48;;;;;;;34.45;16.13;;;5.00;99.90;;;;;;6251470;22;20027;-84
2022/11/03 00:26:36;;;;;;;31.75;15.25;;;4.90;99.90;;;;;;6258094;22;20058;-84
2022/11/03 00:29:25;;;;;;;36.15;15.40;;;4.80;99.90;;;;;;6258240;22;20051;-85
2022/11/03 00:32:13;;;;;;;26.77;14.65;;;4.60;99.90;;;;;;6247918;22;20093;-84
2022/11/03 00:35:00;;;;;;;31.70;14.60;;;4.50;99.90;;;;;;6246308;23;20020;-83
2022/11/03 00:37:47;;;;;;;27.55;13.85;;;4.40;99.90;;;;;;6245465;23;20328;-84
2022/11/03 00:40:34;;;;;;;32.92;13.55;;;4.40;99.90;;;;;;6246661;23;20028;-84
2022/11/03 00:43:23;;;;;;;28.13;13.07;;;4.30;99.90;;;;;;6246640;23;20046;-84
2022/11/03 00:46:10;;;;;;;26.20;13.63;;;4.20;99.90;;;;;;6245096;23;20020;-85
2022/11/03 00:48:57;;;;;;;26.85;11.88;;;4.10;99.90;;;;;;6249193;22;20056;-84
2022/11/03 00:51:45;;;;;;;28.63;12.25;;;4.00;99.90;;;;;;6248163;22;20048;-83
2022/11/03 00:54:32;;;;;;;29.83;11.80;;;4.00;99.90;;;;;;6248848;23;20174;-85
2022/11/03 00:57:19;;;;;;;26.90;12.60;;;4.00;99.90;;;;;;6248105;23;20105;-85
2022/11/03 01:00:07;;;;;;;27.48;12.68;;;4.00;99.90;;;;;;6250492;23;20024;-85
2022/11/03 01:02:56;;;;;;;33.40;13.07;;;4.00;99.90;;;;;;6245667;23;20395;-85
2022/11/03 01:08:49;;;;;;;41.95;12.32;;;4.00;99.90;;;;;;6245449;23;20035;-84
2022/11/03 01:11:43;;;;;;;27.80;11.45;;;3.80;99.90;;;;;;6248629;22;20020;-84
2022/11/03 01:14:34;;;;;;;34.63;11.43;;;3.80;99.90;;;;;;6247158;23;20415;-84
2022/11/03 01:17:26;;;;;;;26.98;10.30;;;3.70;99.90;;;;;;6246329;22;20021;-85
2022/11/03 01:20:13;;;;;;;26.42;12.57;;;3.60;99.90;;;;;;6248860;22;20028;-84
2022/11/03 01:23:01;;;;;;;28.70;11.48;;;3.60;99.90;;;;;;6248763;22;20024;-84
2022/11/03 01:25:49;;;;;;;25.13;10.82;;;3.50;99.90;;;;;;6248140;23;20028;-84
2022/11/03 01:28:37;;;;;;;29.85;10.85;;;3.50;99.90;;;;;;6248084;22;20028;-85
2022/11/03 01:31:26;;;;;;;23.65;11.57;;;3.50;99.90;;;;;;6244672;23;20095;-84
2022/11/03 01:34:20;;;;;;;25.67;11.85;;;3.60;99.90;;;;;;6245574;23;20090;-84
2022/11/03 01:37:10;;;;;;;32.72;12.23;;;3.70;99.90;;;;;;6246285;23;20024;-85
2022/11/03 01:39:59;;;;;;;30.48;12.73;;;3.80;99.90;;;;;;6248095;22;20064;-84
2022/11/03 01:42:46;;;;;;;36.63;13.18;;;3.80;99.90;;;;;;6247805;23;20103;-84
2022/11/03 01:45:36;;;;;;;25.15;12.15;;;3.90;99.90;;;;;;6245158;23;20048;-85
2022/11/03 01:48:23;;;;;;;37.15;12.45;;;3.70;99.90;;;;;;6245582;23;20457;-84
2022/11/03 01:51:15;;;;;;;25.98;12.40;;;3.60;99.90;;;;;;6246069;23;20024;-86
2022/11/03 01:54:08;;;;;;;32.22;12.35;;;3.50;99.90;;;;;;6248536;22;20052;-86
2022/11/03 01:56:57;;;;;;;34.05;12.18;;;3.50;99.90;;;;;;6246834;23;20101;-86
2022/11/03 01:59:46;;;;;;;32.92;13.88;;;3.50;99.90;;;;;;6245295;23;20268;-85
2022/11/03 02:02:34;;;;;;;34.65;13.85;;;3.50;99.90;;;;;;6247160;23;20024;-85
2022/11/03 02:05:24;;;;;;;32.75;13.65;;;3.50;99.90;;;;;;6245620;23;20028;-85
2022/11/03 02:08:23;;;;;;;28.70;14.18;;;3.60;99.90;;;;;;6245583;23;20052;-85
2022/11/03 02:14:20;;;;;;;31.08;13.63;;;3.80;99.90;;;;;;6247541;23;20028;-85
2022/11/03 02:17:11;;;;;;;29.23;13.13;;;3.80;99.90;;;;;;6244352;23;20104;-84
2022/11/03 02:20:10;;;;;;;34.58;13.60;;;3.70;99.90;;;;;;6249336;22;20128;-84
2022/11/03 02:23:11;;;;;;;36.38;14.80;;;3.60;99.90;;;;;;6246468;22;20056;-85
2022/11/03 02:25:59;;;;;;;33.60;14.10;;;3.60;99.90;;;;;;6247612;23;20027;-83
2022/11/03 02:28:47;;;;;;;37.78;15.18;;;3.70;99.90;;;;;;6249414;22;20053;-85
2022/11/03 02:31:41;;;;;;;45.53;15.32;;;3.90;99.90;;;;;;6247326;23;20395;-84
2022/11/03 02:35:08;;;;;;;42.70;16.98;;;4.00;99.90;;;;;;6245569;23;20099;-84
2022/11/03 02:37:59;;;;;;;51.85;17.20;;;4.30;99.90;;;;;;6209866;22;20419;-84
2022/11/03 02:40:52;;;;;;;49.75;16.60;;;4.60;99.90;;;;;;6249392;22;20089;-84
2022/11/03 02:43:40;;;;;;;38.15;16.27;;;4.70;99.90;;;;;;6247506;22;20469;-85
2022/11/03 02:46:30;;;;;;;40.03;18.15;;;4.60;99.90;;;;;;6249018;22;20129;-84
2022/11/03 02:49:18;;;;;;;44.65;18.52;;;4.60;99.90;;;;;;6246898;23;20051;-84
2022/11/03 02:52:08;;;;;;;53.55;17.25;;;4.50;99.90;;;;;;6246703;23;20030;-84
2022/11/03 02:54:57;;;;;;;34.40;15.82;;;4.40;99.90;;;;;;6246743;22;20031;-84
2022/11/03 02:58:09;;;;;;;42.35;17.15;;;4.30;99.90;;;;;;6243420;23;20129;-84
2022/11/03 03:01:35;;;;;;;40.47;16.02;;;4.30;99.90;;;;;;6246120;22;20095;-85
2022/11/03 03:04:29;;;;;;;30.17;16.10;;;4.30;99.90;;;;;;6246751;23;20024;-84
2022/11/03 03:07:25;;;;;;;40.20;16.13;;;4.40;99.90;;;;;;6246512;23;20028;-84
2022/11/03 03:10:18;;;;;;;39.60;16.70;;;4.30;99.90;;;;;;6245475;23;20102;-83
2022/11/03 03:13:07;;;;;;;39.17;15.85;;;4.30;99.90;;;;;;6246773;23;20051;-84
2022/11/03 03:16:13;;;;;;;34.20;15.13;;;4.20;99.90;;;;;;6248510;22;20420;-84
2022/11/03 03:19:11;;;;;;;31.95;14.70;;;4.10;99.90;;;;;;6243942;23;20474;-85
2022/11/03 03:22:05;;;;;;;32.72;15.48;;;4.00;99.90;;;;;;6246442;23;20032;-85
2022/11/03 03:24:59;;;;;;;31.90;15.43;;;4.00;99.90;;;;;;6244340;23;20090;-85
2022/11/03 03:27:54;;;;;;;31.55;14.50;;;3.80;99.90;;;;;;6247199;22;20035;-84
2022/11/03 03:30:44;;;;;;;31.83;14.70;;;3.70;99.90;;;;;;6246558;22;20051;-85
2022/11/03 03:33:35;;;;;;;36.42;15.32;;;3.60;99.90;;;;;;6246914;23;20020;-85
2022/11/03 03:36:25;;;;;;;41.45;16.35;;;3.60;99.90;;;;;;6246389;23;20426;-85
2022/11/03 03:39:14;;;;;;;47.97;19.30;;;3.60;99.90;;;;;;6246596;23;20028;-85
2022/11/03 03:42:03;;;;;;;45.72;18.48;;;3.70;99.90;;;;;;6246859;23;20107;-84
2022/11/03 03:44:54;;;;;;;44.95;17.27;;;3.80;99.90;;;;;;6248627;22;20032;-85
2022/11/03 03:47:42;;;;;;;41.10;18.17;;;3.90;99.90;;;;;;6247581;22;20099;-84
2022/11/03 03:50:35;;;;;;;43.28;16.35;;;3.90;99.90;;;;;;6245611;23;20109;-84
2022/11/03 03:53:28;;;;;;;50.70;17.23;;;3.90;99.90;;;;;;6247957;22;20024;-85
2022/11/03 03:56:16;;;;;;;47.60;16.30;;;3.80;99.90;;;;;;6248799;22;20099;-85
2022/11/03 03:59:06;;;;;;;39.30;15.80;;;3.70;99.90;;;;;;6246716;23;20020;-85
2022/11/03 04:01:54;;;;;;;39.95;15.50;;;3.60;99.90;;;;;;6245849;23;20028;-85
2022/11/03 04:04:41;;;;;;;34.75;15.40;;;3.60;99.90;;;;;;6247233;23;20032;-85
2022/11/03 04:07:47;;;;;;;50.33;17.55;;;3.50;99.90;;;;;;6249341;23;20028;-85
2022/11/03 04:10:34;;;;;;;37.45;14.77;;;3.50;99.90;;;;;;6250464;23;20024;-86
2022/11/03 04:22:48;;;;;;;45.22;16.88;;;3.30;99.90;;;;;;6249382;23;20102;-84
2022/11/03 04:25:35;;;;;;;31.55;15.80;;;3.20;99.90;;;;;;6250192;22;20030;-84
2022/11/03 04:28:26;;;;;;;44.17;18.08;;;3.20;99.90;;;;;;6249528;23;20283;-85
2022/11/03 04:31:15;;;;;;;41.88;16.73;;;3.10;99.90;;;;;;6249273;23;20098;-86
2022/11/03 04:34:10;;;;;;;51.20;17.33;;;3.10;99.90;;;;;;6249110;23;20035;-85
2022/11/03 04:36:58;;;;;;;38.92;17.33;;;3.10;99.90;;;;;;6250389;23;20020;-85
2022/11/03 04:39:45;;;;;;;40.35;16.92;;;3.30;99.90;;;;;;6250332;23;20076;-83
2022/11/03 04:42:33;;;;;;;36.30;17.58;;;3.20;99.90;;;;;;6245162;23;20311;-84
2022/11/03 04:45:29;;;;;;;37.38;17.42;;;3.20;99.90;;;;;;6247059;22;20028;-84
2022/11/03 04:48:23;;;;;;;42.13;17.48;;;3.10;99.90;;;;;;6248765;22;20028;-86
2022/11/03 04:51:16;;;;;;;46.10;17.30;;;3.20;99.90;;;;;;6243114;23;20028;-84
2022/11/03 04:54:21;;;;;;;41.28;17.42;;;3.30;99.90;;;;;;6248308;22;20420;-84
2022/11/03 04:57:16;;;;;;;44.33;18.08;;;3.20;99.90;;;;;;6246442;23;20332;-84
2022/11/03 05:00:06;;;;;;;54.75;20.02;;;3.20;99.90;;;;;;6246810;22;20101;-84
2022/11/03 05:02:53;;;;;;;48.00;19.95;;;3.30;99.90;;;;;;6246141;22;20394;-84
2022/11/03 05:05:42;;;;;;;49.88;22.17;;;3.40;99.90;;;;;;6246231;22;20104;-84
2022/11/03 05:08:29;;;;;;;51.85;21.20;;;3.40;99.90;;;;;;6247152;23;20066;-85
2022/11/03 05:11:43;;;;;;;47.67;20.73;;;3.50;99.90;;;;;;6248500;23;20438;-85
2022/11/03 05:14:31;;;;;;;46.95;20.80;;;3.40;99.90;;;;;;6247072;23;20261;-85
2022/11/03 05:17:25;;;;;;;56.30;21.67;;;3.50;99.90;;;;;;6248833;22;20103;-85
2022/11/03 05:20:36;;;;;;;50.80;21.00;;;3.50;99.90;;;;;;6249605;22;20082;-84
2022/11/03 05:23:27;;;;;;;58.63;20.20;;;3.50;99.90;;;;;;6245469;23;20095;-85
2022/11/03 05:26:27;;;;;;;48.58;20.95;;;3.40;99.90;;;;;;6247878;23;20056;-84
2022/11/03 05:29:18;;;;;;;50.88;20.83;;;3.30;99.90;;;;;;6249659;22;20095;-84
2022/11/03 05:32:20;;;;;;;47.97;20.85;;;3.30;99.90;;;;;;6249891;22;20129;-84
2022/11/03 05:35:20;;;;;;;54.70;21.15;;;3.30;99.90;;;;;;6248040;23;20035;-83
2022/11/03 05:38:13;;;;;;;59.78;22.13;;;3.30;99.90;;;;;;6245826;23;20115;-84
2022/11/03 05:41:00;;;;;;;53.83;21.90;;;3.30;99.90;;;;;;6250374;22;20024;-87
2022/11/03 05:44:01;;;;;;;54.90;21.80;;;3.30;99.90;;;;;;6247424;23;20103;-86
2022/11/03 05:46:48;;;;;;;51.58;21.00;;;3.30;99.90;;;;;;6249139;23;20107;-87
2022/11/03 05:49:35;;;;;;;55.42;20.23;;;3.40;99.90;;;;;;6249790;23;20065;-86
2022/11/03 05:52:25;;;;;;;56.33;20.77;;;3.40;99.90;;;;;;6250259;22;20024;-87
2022/11/03 05:55:41;;;;;;;42.35;20.10;;;3.40;99.90;;;;;;6251405;23;20404;-89
2022/11/03 05:58:34;;;;;;;44.65;20.60;;;3.40;99.90;;;;;;6253427;22;20103;-90
2022/11/03 06:01:33;;;;;;;46.85;19.20;;;3.30;99.90;;;;;;6250522;23;20028;-87
2022/11/03 06:04:32;;;;;;;41.78;18.35;;;3.20;99.90;;;;;;6257123;22;20097;-89
2022/11/03 06:07:24;;;;;;;45.88;20.63;;;3.20;99.90;;;;;;6255708;22;20028;-87
2022/11/03 06:10:30;;;;;;;52.95;21.33;;;3.20;99.90;;;;;;6261887;22;20099;-89
2022/11/03 06:13:29;;;;;;;56.60;22.60;;;3.40;99.90;;;;;;6252885;23;20115;-89
2022/11/03 06:16:22;;;;;;;58.38;22.92;;;3.50;99.90;;;;;;6246137;23;20035;-88
2022/11/03 06:19:23;;;;;;;79.38;26.05;;;3.60;99.90;;;;;;6248690;22;20020;-89
2022/11/03 06:22:35;;;;;;;61.58;25.75;;;3.70;99.90;;;;;;6246791;23;20056;-87
2022/11/03 06:25:32;;;;;;;57.08;23.95;;;3.70;99.90;;;;;;6247885;23;20376;-86
2022/11/03 06:28:39;;;;;;;60.10;23.27;;;3.70;99.90;;;;;;6245288;23;20028;-85
2022/11/03 06:31:31;;;;;;;59.38;21.95;;;3.90;99.90;;;;;;6249184;22;20039;-86
2022/11/03 06:34:48;;;;;;;38.53;16.63;;;4.10;99.90;;;;;;6248423;22;20024;-83
2022/11/03 06:37:36;;;;;;;50.78;20.73;;;4.40;99.90;;;;;;6247513;22;20420;-83
2022/11/03 06:40:34;;;;;;;53.83;20.35;;;4.70;99.90;;;;;;6246742;23;20305;-85
2022/11/03 06:43:27;;;;;;;57.70;19.98;;;4.90;99.90;;;;;;6246454;23;20122;-84
2022/11/03 06:46:21;;;;;;;57.17;21.45;;;5.00;99.90;;;;;;6248545;22;20028;-83
2022/11/03 06:49:33;;;;;;;62.70;23.10;;;5.20;99.90;;;;;;6246427;23;20056;-84
2022/11/03 06:52:36;;;;;;;56.30;24.55;;;5.30;99.90;;;;;;6246219;23;20117;-84
2022/11/03 06:55:26;;;;;;;;;;;5.40;99.90;;;;;;6247869;22;20058;-83
2022/11/03 06:58:22;;;;;;;57.05;21.88;;;5.40;99.90;;;;;;6245323;23;20326;-82
2022/11/03 07:01:21;;;;;;;60.88;23.08;;;5.50;99.90;;;;;;6246194;22;20333;-83
2022/11/03 07:04:29;;;;;;;52.58;23.95;;;5.70;99.90;;;;;;6247145;22;20273;-83
2022/11/03 07:07:24;;;;;;;62.17;24.33;;;6.10;99.90;;;;;;6247597;23;20447;-83
2022/11/03 07:10:14;;;;;;;63.25;25.00;;;6.40;99.90;;;;;;6246403;22;20039;-84
2022/11/03 07:13:29;;;;;;;52.28;24.63;;;6.80;99.90;;;;;;6243520;23;20099;-84
2022/11/03 07:16:22;;;;;;;44.88;23.60;;;6.80;99.90;;;;;;6246698;23;20024;-85
2022/11/03 07:19:23;;;;;;;70.45;27.15;;;6.60;99.90;;;;;;6246022;23;20383;-83
2022/11/03 07:22:28;;;;;;;53.95;23.92;;;6.40;99.90;;;;;;6244616;23;20028;-84
2022/11/03 07:25:19;;;;;;;58.67;24.15;;;6.40;99.90;;;;;;6248186;22;20455;-83
2022/11/03 07:28:10;;;;;;;49.45;20.27;;;6.50;99.90;;;;;;6246008;22;20020;-83
2022/11/03 07:31:00;;;;;;;53.33;21.00;;;6.70;99.90;;;;;;6246216;22;20108;-83
2022/11/03 07:33:47;;;;;;;47.35;19.63;;;6.90;99.90;;;;;;6245175;23;20091;-84
2022/11/03 07:36:34;;;;;;;38.88;18.33;;;7.00;99.90;;;;;;6247230;22;20091;-84
2022/11/03 07:39:22;;;;;;;49.72;19.48;;;7.10;99.90;;;;;;6248769;23;20024;-84
2022/11/03 07:42:18;;;;;;;40.22;18.15;;;7.20;99.90;;;;;;6245288;23;20024;-84
2022/11/03 07:45:34;;;;;;;32.30;16.98;;;7.40;99.90;;;;;;6245880;23;20370;-82
2022/11/03 07:48:46;;;;;;;40.72;17.20;;;7.50;99.90;;;;;;6246715;22;20024;-82
2022/11/03 07:51:37;;;;;;;36.17;15.82;;;7.50;99.90;;;;;;6245783;22;20497;-82
2022/11/03 07:54:35;;;;;;;36.60;18.15;;;7.60;99.90;;;;;;6244031;23;20372;-83
2022/11/03 07:57:31;;;;;;;30.40;16.73;;;7.70;99.90;;;;;;6246901;22;20136;-83
2022/11/03 08:00:21;;;;;;;30.10;15.95;;;7.70;99.90;;;;;;6244838;23;20028;-83
2022/11/03 08:03:31;;;;;;;28.92;13.82;;;7.70;99.90;;;;;;6249337;23;20090;-82
2022/11/03 08:06:18;;;;;;;28.98;12.80;;;7.80;99.90;;;;;;6242760;23;20044;-83
2022/11/03 08:09:06;;;;;;;19.60;11.23;;;7.90;99.90;;;;;;6245497;22;20040;-84
2022/11/03 08:11:55;;;;;;;21.70;9.95;;;8.00;99.90;;;;;;6245910;23;20024;-84
2022/11/03 08:14:45;;;;;;;19.50;9.35;;;8.10;99.90;;;;;;6243948;23;20094;-83
2022/11/03 08:17:32;;;;;;;24.88;9.23;;;8.30;99.90;;;;;;6244036;23;20028;-83
2022/11/03 08:20:20;;;;;;;15.45;8.10;;;8.30;99.90;;;;;;6245000;23;20024;-83
2022/11/03 08:23:10;;;;;;;17.15;8.30;;;8.40;99.90;;;;;;6244808;23;20028;-84
2022/11/03 08:26:12;;;;;;;16.70;7.53;;;8.50;99.90;;;;;;6244617;23;20028;-85
2022/11/03 08:29:01;;;;;;;14.43;7.28;;;8.70;99.90;;;;;;6244081;23;20040;-85
2022/11/03 08:31:51;;;;;;;14.63;8.07;;;8.70;99.90;;;;;;6246880;22;20024;-83
2022/11/03 08:34:38;;;;;;;13.20;7.22;;;8.70;99.90;;;;;;6239978;23;20027;-84
2022/11/03 08:37:26;;;;;;;17.40;6.97;;;8.80;99.90;;;;;;6244166;23;20437;-85
2022/11/03 08:40:13;;;;;;;18.73;6.35;;;8.80;99.90;;;;;;6243454;23;20088;-85
2022/11/03 08:43:04;;;;;;;15.57;7.00;;;8.90;75.00;;;;;;6243811;23;20076;-84
2022/11/03 08:45:55;;;;;;;16.40;6.05;;;9.00;1.00;;;;;;6245367;22;20625;-85
2022/11/03 08:48:51;;;;;;;11.57;5.28;;;9.20;99.90;;;;;;6245623;23;20028;-85
2022/11/03 08:51:41;;;;;;;10.63;6.00;;;9.20;99.90;;;;;;6244329;23;20278;-86
2022/11/03 08:54:31;;;;;;;14.90;6.13;;;9.30;1.00;;;;;;6247382;23;20146;-85
2022/11/03 08:57:18;;;;;;;8.18;5.15;;;9.30;77.00;;;;;;6247374;22;20343;-85
2022/11/03 09:00:06;;;;;;;13.63;5.13;;;9.40;99.90;;;;;;6245419;23;20101;-84
2022/11/03 09:02:56;;;;;;;13.48;5.07;;;9.30;99.90;;;;;;6246859;22;20119;-85
2022/11/03 09:05:43;;;;;;;17.17;6.05;;;9.40;1.00;;;;;;6245214;23;20028;-86
2022/11/03 09:08:31;;;;;;;16.08;4.93;;;9.50;1.00;;;;;;6245741;23;20095;-83
2022/11/03 09:11:38;;;;;;;16.83;5.03;;;9.70;99.90;;;;;;6245454;23;20146;-83
2022/11/03 09:14:25;;;;;;;10.38;4.93;;;10.00;99.90;;;;;;6247874;22;20408;-85
2022/11/03 09:17:13;;;;;;;15.90;4.80;;;10.30;99.90;;;;;;6248108;23;20052;-84
2022/11/03 09:20:00;;;;;;;11.15;4.60;;;10.40;99.90;;;;;;6248435;23;20368;-87
2022/11/03 09:22:50;;;;;;;6.72;3.88;;;10.70;68.30;;;;;;6249959;22;20024;-85
2022/11/03 09:25:37;;;;;;;6.93;4.15;;;10.80;1.00;;;;;;6246715;23;20028;-84
2022/11/03 09:28:25;;;;;;;10.45;4.45;;;10.80;1.00;;;;;;6248612;23;20024;-83
2022/11/03 09:31:14;;;;;;;8.60;4.18;;;10.80;1.00;;;;;;6247115;23;20031;-84
2022/11/03 09:34:02;;;;;;;8.30;4.13;;;10.60;1.00;;;;;;6247198;23;20082;-86
2022/11/03 09:36:49;;;;;;;9.10;4.65;;;10.70;1.00;;;;;;6247101;23;20426;-84
2022/11/03 09:39:42;;;;;;;13.02;4.72;;;10.70;1.00;;;;;;6245866;23;20062;-83
2022/11/03 09:42:37;;;;;;;13.38;5.47;;;10.70;1.00;;;;;;6245871;23;20024;-85
2022/11/03 09:45:25;;;;;;;13.68;5.25;;;10.80;1.00;;;;;;6249167;23;20035;-82
2022/11/03 09:48:13;;;;;;;13.23;5.40;;;10.60;1.00;;;;;;6246891;23;20032;-84
2022/11/03 09:51:00;;;;;;;13.07;5.63;;;10.30;1.00;;;;;;6245644;23;20028;-85
2022/11/03 09:53:48;;;;;;;11.05;5.93;;;10.30;1.00;;;;;;6246167;23;20445;-84
2022/11/03 09:56:38;;;;;;;10.65;6.05;;;10.30;3.30;;;;;;6247485;23;20020;-85
2022/11/03 09:59:32;;;;;;;13.63;6.35;;;10.30;13.40;;;;;;6247515;23;20125;-85
2022/11/03 10:02:22;;;;;;;13.15;6.53;;;10.30;21.80;;;;;;6247748;23;20036;-85
2022/11/03 10:05:13;;;;;;;15.13;6.00;;;10.40;26.10;;;;;;6248474;23;20039;-85
2022/11/03 10:08:08;;;;;;;14.32;5.85;;;10.30;31.50;;;;;;6248870;22;20094;-85
2022/11/03 10:10:59;;;;;;;12.18;5.32;;;10.50;37.70;;;;;;6248693;22;20109;-86
2022/11/03 10:13:52;;;;;;;14.77;5.97;;;10.40;17.00;;;;;;6244755;23;20036;-87
2022/11/03 10:16:41;;;;;;;13.35;6.05;;;10.40;20.00;;;;;;6244787;23;20085;-85
2022/11/03 10:19:28;;;;;;;13.05;6.43;;;10.50;31.40;;;;;;6245631;23;20024;-85
2022/11/03 10:22:18;;;;;;;13.05;7.15;;;10.50;18.00;;;;;;6244035;23;20132;-86
2022/11/03 10:25:43;;;;;;;16.15;6.60;;;10.50;20.60;;;;;;6246837;22;20063;-84
2022/11/03 10:28:30;;;;;;;14.88;6.28;;;10.70;24.70;;;;;;6246880;23;20038;-85
2022/11/03 10:31:19;;;;;;;11.05;6.00;;;10.80;12.60;;;;;;6246117;23;20117;-85
2022/11/03 10:34:36;;;;;;;15.07;6.35;;;10.90;1.00;;;;;;6251849;23;20024;-86
2022/11/03 10:37:25;;;;;;;12.15;6.10;;;11.00;1.00;;;;;;6250954;23;20024;-85
2022/11/03 10:40:34;;;;;;;12.85;6.60;;;11.20;1.00;;;;;;6244084;23;20440;-85
2022/11/03 10:43:34;;;;;;;16.48;6.40;;;11.40;1.00;;;;;;6247885;22;20101;-85
2022/11/03 10:46:22;;;;;;;11.35;6.32;;;11.50;1.00;;;;;;6247411;23;20431;-85
2022/11/03 10:49:31;;;;;;;12.70;6.45;;;11.80;1.00;;;;;;6246322;23;20333;-84
2022/11/03 10:52:24;;;;;;;12.35;6.85;;;12.40;1.00;;;;;;6243772;23;20030;-85
2022/11/03 10:55:11;;;;;;;11.35;5.43;;;13.10;1.00;;;;;;6246557;23;20039;-85
2022/11/03 10:58:00;;;;;;;11.00;5.85;;;13.60;99.90;;;;;;6244661;23;20023;-86
2022/11/03 11:00:47;;;;;;;7.45;5.47;;;13.90;99.90;;;;;;6248548;22;20032;-86
2022/11/03 11:03:41;;;;;;;15.65;6.50;;;13.80;99.90;;;;;;6246029;23;20020;-86
2022/11/03 11:06:30;;;;;;;8.25;5.50;;;13.60;99.90;;;;;;6245543;23;20020;-86
2022/11/03 11:09:30;;;;;;;11.43;5.25;;;13.50;99.90;;;;;;6245236;23;20024;-88
2022/11/03 11:12:21;;;;;;;12.45;5.35;;;13.30;99.90;;;;;;6244290;23;20027;-87
2022/11/03 11:15:34;;;;;;;12.25;4.70;;;13.40;99.90;;;;;;6243807;23;20095;-86
2022/11/03 11:18:30;;;;;;;6.03;4.10;;;13.50;99.90;;;;;;6244602;23;20040;-87
2022/11/03 11:21:18;;;;;;;13.32;5.55;;;13.60;99.90;;;;;;6248080;22;20035;-85
2022/11/03 11:24:09;;;;;;;10.85;5.22;;;13.90;99.90;;;;;;6246345;22;20395;-86
2022/11/03 11:26:58;;;;;;;8.48;4.47;;;13.80;99.90;;;;;;6246184;23;20020;-85
2022/11/03 11:29:45;;;;;;;10.00;4.40;;;13.90;99.90;;;;;;6248515;22;20091;-87
2022/11/03 11:32:38;;;;;;;10.18;4.55;;;13.70;99.90;;;;;;6246686;23;20035;-89
2022/11/03 11:35:38;;;;;;;;;;;;;;;;;;;;;
2022/11/03 11:39:39;;;;;;;6.43;3.53;;;13.70;99.90;;;;;;6242303;23;20038;-85
2022/11/03 11:43:17;;;;;;;6.53;4.05;;;13.70;99.90;;;;;;6242599;22;20024;-85
2022/11/03 11:46:39;;;;;;;6.68;3.33;;;13.90;99.90;;;;;;6130553;23;20318;-88
2022/11/03 11:49:39;;;;;;;7.00;3.20;;;14.20;99.90;;;;;;6136602;22;20082;-85
2022/11/03 11:52:29;;;;;;;10.13;3.20;;;14.20;99.90;;;;;;6244241;23;20028;-84
2022/11/03 11:55:39;;;;;;;5.20;3.17;;;14.10;99.90;;;;;;6243704;23;20135;-85
2022/11/03 11:58:32;;;;;;;6.40;3.03;;;14.20;99.90;;;;;;6243447;23;20024;-85
2022/11/03 12:01:33;;;;;;;7.35;3.03;;;14.20;99.90;;;;;;6244895;23;20090;-84
2022/11/03 12:04:30;;;;;;;7.35;2.95;;;14.00;99.90;;;;;;6242805;23;20107;-85
2022/11/03 12:07:33;;;;;;;6.90;3.80;;;14.00;99.90;;;;;;6243502;23;20078;-86
2022/11/03 12:10:22;;;;;;;;;;;13.80;99.90;;;;;;6244096;23;20027;-84
2022/11/03 12:13:43;;;;;;;10.10;3.70;;;13.80;99.90;;;;;;6246902;22;19942;-85
2022/11/03 12:16:31;;;;;;;9.32;3.80;;;13.80;99.90;;;;;;6247688;23;20024;-85
2022/11/03 12:19:34;;;;;;;7.05;3.30;;;13.80;99.90;;;;;;6251316;22;20032;-84
2022/11/03 12:22:27;;;;;;;11.60;4.00;;;13.80;99.90;;;;;;6251978;22;20088;-83
2022/11/03 12:25:35;;;;;;;14.32;8.50;;;13.60;99.90;;;;;;6246674;22;20028;-83
2022/11/03 12:28:34;;;;;;;9.77;5.32;;;13.40;99.90;;;;;;6244284;23;20031;-83
2022/11/03 12:31:29;;;;;;;8.60;3.45;;;13.50;99.90;;;;;;6246592;23;20024;-84
2022/11/03 12:34:26;;;;;;;11.45;3.97;;;13.30;99.90;;;;;;6245972;23;20101;-84
2022/11/03 12:37:14;;;;;;;7.68;3.35;;;13.20;99.90;;;;;;6246376;23;20023;-86
2022/11/03 12:40:05;;;;;;;8.65;3.95;;;13.20;99.90;;;;;;6244731;23;20066;-84
2022/11/03 12:42:53;;;;;;;10.85;4.30;;;13.10;99.90;;;;;;6245883;23;20028;-86
2022/11/03 12:45:40;;;;;;;10.00;3.95;;;13.00;1.00;;;;;;6244866;23;20040;-85
2022/11/03 12:48:27;;;;;;;5.72;3.60;;;12.90;1.00;;;;;;6244438;23;20035;-83
2022/11/03 12:51:17;;;;;;;10.20;4.20;;;12.80;1.00;;;;;;6245370;23;20043;-85
2022/11/03 12:54:04;;;;;;;9.02;3.85;;;12.60;1.00;;;;;;6246703;22;20020;-83
2022/11/03 12:56:52;;;;;;;11.13;3.58;;;12.50;1.00;;;;;;6245590;23;20020;-86
2022/11/03 12:59:45;;;;;;;7.90;3.88;;;12.50;1.00;;;;;;6245428;23;20024;-84
2022/11/03 13:02:33;;;;;;;;;;;12.40;1.00;;;;;;6245342;23;20035;-83
2022/11/03 13:05:20;;;;;;;10.43;3.40;;;12.30;1.00;;;;;;6247555;22;19986;-84
2022/11/03 13:08:11;;;;;;;13.25;3.80;;;12.30;1.00;;;;;;6245982;23;20146;-84
2022/11/03 13:14:15;;;;;;;8.98;3.75;;;12.20;1.00;;;;;;6245801;23;20024;-85
2022/11/03 13:17:05;;;;;;;8.63;4.05;;;12.20;1.00;;;;;;6246584;23;20055;-85
2022/11/03 13:19:53;;;;;;;9.25;3.70;;;12.40;1.00;;;;;;6246632;23;20024;-85
2022/11/03 13:22:41;;;;;;;8.52;3.40;;;12.40;1.00;;;;;;6246987;23;20028;-84
2022/11/03 13:25:28;;;;;;;7.88;3.95;;;12.40;1.00;;;;;;6245371;23;20121;-87
2022/11/03 13:28:15;;;;;;;10.65;4.18;;;12.50;1.00;;;;;;6244385;23;20032;-86
2022/11/03 13:31:05;;;;;;;8.30;4.50;;;12.40;1.00;;;;;;6246138;23;20038;-84
2022/11/03 13:33:52;;;;;;;12.95;4.20;;;12.40;1.00;;;;;;6244326;23;20113;-83
2022/11/03 13:36:39;;;;;;;7.50;4.32;;;12.40;1.00;;;;;;6245133;23;20077;-84
2022/11/03 13:39:28;;;;;;;10.55;4.90;;;12.20;1.00;;;;;;6244420;23;20044;-83
2022/11/03 13:42:15;;;;;;;7.13;4.53;;;12.20;1.00;;;;;;6246327;22;20098;-84
2022/11/03 13:45:04;;;;;;;11.18;5.35;;;12.20;1.00;;;;;;6245166;23;20102;-84
2022/11/03 13:47:51;;;;;;;7.70;4.43;;;12.10;1.00;;;;;;6244649;23;20034;-84
2022/11/03 13:50:59;;;;;;;13.68;4.47;;;12.00;1.00;;;;;;6246886;23;20055;-85
2022/11/03 13:53:48;;;;;;;7.10;3.92;;;12.00;1.00;;;;;;6247764;22;20118;-84
2022/11/03 13:56:56;;;;;;;13.50;5.38;;;12.00;1.00;;;;;;6245976;23;20031;-85
2022/11/03 14:00:04;;;;;;;7.18;3.88;;;11.90;1.00;;;;;;6244496;23;20055;-84
2022/11/03 14:02:52;;;;;;;11.65;4.25;;;11.80;1.00;;;;;;6249310;22;20086;-84
2022/11/03 14:06:01;;;;;;;11.85;4.47;;;11.70;1.00;;;;;;6246176;23;20419;-84
2022/11/03 14:08:48;;;;;;;10.95;4.80;;;11.70;1.00;;;;;;6246082;23;20034;-85
2022/11/03 14:14:44;;;;;;;9.70;4.30;;;11.80;1.00;;;;;;6244729;23;20137;-82
2022/11/03 14:17:32;;;;;;;12.80;4.85;;;11.80;1.00;;;;;;6246362;23;20273;-83
2022/11/03 14:20:24;;;;;;;12.25;4.50;;;11.90;1.00;;;;;;6248485;22;20076;-83
2022/11/03 14:23:17;;;;;;;9.85;4.03;;;11.90;1.00;;;;;;6246299;23;20071;-84
2022/11/03 14:26:04;;;;;;;7.47;4.07;;;11.90;1.00;;;;;;6245910;22;20395;-86
2022/11/03 14:29:10;;;;;;;9.55;4.15;;;11.90;1.00;;;;;;6245230;23;20388;-86
2022/11/03 14:31:58;;;;;;;6.75;3.95;;;11.90;1.00;;;;;;6247474;22;20403;-83
2022/11/03 14:34:46;;;;;;;8.40;4.50;;;12.00;1.00;;;;;;6245914;23;20125;-84
2022/11/03 14:37:34;;;;;;;9.95;4.13;;;12.00;1.00;;;;;;6243481;23;20051;-84
2022/11/03 14:43:29;;;;;;;11.55;4.82;;;11.80;1.00;;;;;;6243469;23;20107;-82
2022/11/03 14:46:23;;;;;;;10.52;4.70;;;11.80;1.00;;;;;;6245540;23;20043;-83
2022/11/03 14:49:11;;;;;;;10.18;5.00;;;11.70;1.00;;;;;;6247029;22;20031;-83
2022/11/03 14:52:00;;;;;;;14.85;6.85;;;11.60;1.00;;;;;;6245847;23;20113;-82
2022/11/03 14:54:48;;;;;;;12.27;6.78;;;11.60;1.00;;;;;;6244066;23;20067;-82
2022/11/03 14:57:35;;;;;;;13.98;6.75;;;11.50;1.00;;;;;;6245620;23;20101;-81
2022/11/03 15:00:25;;;;;;;10.45;6.25;;;11.40;1.00;;;;;;6244925;23;20020;-82
2022/11/03 15:03:12;;;;;;;14.95;6.32;;;11.40;1.00;;;;;;6245205;23;20028;-82
2022/11/03 15:05:59;;;;;;;30.10;14.93;;;11.40;1.00;;;;;;6244941;23;20024;-83
2022/11/03 15:08:47;;;;;;;21.45;10.90;;;11.30;1.00;;;;;;6242908;23;20078;-82
2022/11/03 15:11:43;;;;;;;16.58;8.38;;;11.30;19.70;;;;;;6244116;23;20337;-83
2022/11/03 15:14:30;;;;;;;14.73;6.90;;;11.30;43.30;;;;;;6245360;23;20162;-82
2022/11/03 15:17:20;;;;;;;25.38;14.43;;;11.30;72.90;;;;;;6244129;23;20107;-82
2022/11/03 15:20:08;;;;;;;18.73;8.82;;;11.30;83.00;;;;;;6246154;23;20380;-84
2022/11/03 15:22:55;;;;;;;18.73;7.80;;;11.30;75.70;;;;;;6245246;23;20023;-84
2022/11/03 15:26:02;;;;;;;17.15;7.05;;;11.30;99.90;;;;;;6245759;23;20028;-83
2022/11/03 15:28:49;;;;;;;18.92;8.00;;;11.20;99.90;;;;;;6245700;23;20108;-84